To NAV CANADA Home Page Login to a new session Search on AWWS site Disclaimer Vers la page française équivalente Tips FAQ What's new on the site To the Forecasts and Observations / NOTAM section To "File a Flight Plan" website Publications and other links Update of the User's profile FIC Telephone Numbers My Weather Data Folder Route Weather Data Regional Weather Data Local Weather Data To the Forecasts and Observations / NOTAM section
Request Generated 06/15/2019 at 23:18:12 UTC . Weather information available at that time is displayed.

METAR/TAF

MONTREAL/ST-HUBERT/QC    (show WxCam)

SPECI CYHU 152302Z AUTO 24011G18KT 6SM -RA BR BKN043 OVC050 16/14 A2976 RMK SLP081 DENSITY ALT 400FT=
METAR CYHU 152300Z AUTO 24009G18KT 5SM -RA BR FEW031 BKN043 OVC050 16/14 A2976 RMK SLP081 DENSITY ALT 400FT=
SPECI CYHU 152257Z AUTO 23012G18KT 5SM -RA BR FEW031 BKN043 OVC055 16/14 A2976 RMK SLP081 DENSITY ALT 400FT=
SPECI CYHU 152237Z AUTO 23016G27KT 8SM -RA BKN034 OVC045 18/13 A2976 RMK SLP081 DENSITY ALT 500FT=
METAR CYHU 152200Z AUTO 23023G32KT 9SM SCT040 BKN048 OVC070 19/12 A2975 RMK SLP076 DENSITY ALT 700FT=
SPECI CYHU 152126Z AUTO 22029G39KT 9SM FEW049 SCT055 OVC070 18/13 A2975 RMK SLP077 DENSITY ALT 600FT=
SPECI CYHU 152123Z AUTO 21018G27KT 9SM BKN060 OVC073 18/13 A2976 RMK SLP079 DENSITY ALT 600FT=
SPECI CYHU 152113Z AUTO 22019G35KT 9SM -RA BKN060 OVC074 18/13 A2976 RMK SLP080 DENSITY ALT 600FT=
SPECI CYHU 152111Z AUTO 23022G35KT 9SM BKN060 OVC074 18/14 A2976 RMK SLP081 DENSITY ALT 600FT=
SPECI CYHU 152105Z AUTO 23012KT 9SM BKN060 OVC074 18/14 A2976 RMK SLP081 DENSITY ALT 500FT=
METAR CYHU 152100Z AUTO 23013KT 9SM -RA BKN060 OVC075 17/14 A2976 RMK SLP080 DENSITY ALT 500FT=

TAF AMD CYHU 152013Z 1520/1618 24020G30KT P6SM OVC070 TEMPO 1520/1522
P6SM -RA
FM152200 23020G30KT P6SM -RA OVC040 TEMPO 1522/1602 4SM -RA BR
OVC020 PROB30 1522/1602 1SM SHRA BR BKN007 OVC015
FM160200 26010G20KT P6SM BKN120
FM160400 26010KT P6SM FEW040
FM160700 26008KT P6SM FEW040 PROB30 1607/1611 1SM BR
FM161400 27005KT P6SM FEW030
RMK FCST BASED ON AUTO OBS. NXT FCST BY 160000Z=
Your time UTC time
Weather data provided by Environment Canada and NAV CANADA